sensor_id;sensor_type;location;lat;lon;timestamp;pressure;altitude;pressure_sealevel;temperature;humidity
77011;BME280;65945;53.148;17.956;2023-09-18T00:00:19;101193.27;;;15.26;82.72
77011;BME280;65945;53.148;17.956;2023-09-18T00:03:07;101193.14;;;15.23;82.74
77011;BME280;65945;53.148;17.956;2023-09-18T00:05:34;101195.81;;;15.19;82.77
77011;BME280;65945;53.148;17.956;2023-09-18T00:08:01;101197.92;;;15.16;82.88
77011;BME280;65945;53.148;17.956;2023-09-18T00:10:30;101200.56;;;15.12;82.74
77011;BME280;65945;53.148;17.956;2023-09-18T00:12:57;101197.83;;;15.08;82.83
77011;BME280;65945;53.148;17.956;2023-09-18T00:15:24;101195.79;;;15.05;83.12
77011;BME280;65945;53.148;17.956;2023-09-18T00:17:51;101192.51;;;15.01;83.74
77011;BME280;65945;53.148;17.956;2023-09-18T00:20:18;101191.70;;;14.98;83.50
77011;BME280;65945;53.148;17.956;2023-09-18T00:22:45;101189.58;;;14.95;83.35
77011;BME280;65945;53.148;17.956;2023-09-18T00:25:12;101181.78;;;14.92;83.80
77011;BME280;65945;53.148;17.956;2023-09-18T00:27:41;101182.81;;;14.89;83.90
77011;BME280;65945;53.148;17.956;2023-09-18T00:30:07;101179.79;;;14.87;84.08
77011;BME280;65945;53.148;17.956;2023-09-18T00:32:35;101176.14;;;14.85;83.98
77011;BME280;65945;53.148;17.956;2023-09-18T00:35:01;101176.73;;;14.84;83.84
77011;BME280;65945;53.148;17.956;2023-09-18T00:37:28;101175.02;;;14.82;83.88
77011;BME280;65945;53.148;17.956;2023-09-18T00:39:55;101169.77;;;14.79;83.85
77011;BME280;65945;53.148;17.956;2023-09-18T00:42:22;101167.98;;;14.78;83.86
77011;BME280;65945;53.148;17.956;2023-09-18T00:44:49;101164.56;;;14.77;83.95
77011;BME280;65945;53.148;17.956;2023-09-18T00:47:17;101164.23;;;14.74;84.05
77011;BME280;65945;53.148;17.956;2023-09-18T00:49:46;101162.52;;;14.73;84.09
77011;BME280;65945;53.148;17.956;2023-09-18T00:52:15;101163.20;;;14.71;84.08
77011;BME280;65945;53.148;17.956;2023-09-18T00:54:43;101164.32;;;14.69;83.92
77011;BME280;65945;53.148;17.956;2023-09-18T00:57:11;101161.06;;;14.67;83.97
77011;BME280;65945;53.148;17.956;2023-09-18T00:59:38;101162.75;;;14.66;84.19
77011;BME280;65945;53.148;17.956;2023-09-18T01:02:05;101162.02;;;14.64;83.91
77011;BME280;65945;53.148;17.956;2023-09-18T01:04:33;101169.21;;;14.61;84.00
77011;BME280;65945;53.148;17.956;2023-09-18T01:07:00;101164.02;;;14.58;84.16
77011;BME280;65945;53.148;17.956;2023-09-18T01:09:31;101165.43;;;14.55;84.50
77011;BME280;65945;53.148;17.956;2023-09-18T01:17:35;101160.91;;;14.46;85.07
77011;BME280;65945;53.148;17.956;2023-09-18T01:20:10;101161.10;;;14.42;85.21
77011;BME280;65945;53.148;17.956;2023-09-18T01:22:37;101157.83;;;14.39;85.28
77011;BME280;65945;53.148;17.956;2023-09-18T01:25:04;101157.56;;;14.37;85.26
77011;BME280;65945;53.148;17.956;2023-09-18T01:27:33;101159.46;;;14.36;85.34
77011;BME280;65945;53.148;17.956;2023-09-18T01:29:59;101160.59;;;14.34;85.34
77011;BME280;65945;53.148;17.956;2023-09-18T01:32:29;101160.20;;;14.33;85.43
77011;BME280;65945;53.148;17.956;2023-09-18T01:34:57;101164.04;;;14.32;85.53
77011;BME280;65945;53.148;17.956;2023-09-18T01:37:28;101163.70;;;14.30;85.50
77011;BME280;65945;53.148;17.956;2023-09-18T01:39:55;101163.90;;;14.28;85.68
77011;BME280;65945;53.148;17.956;2023-09-18T01:42:26;101163.30;;;14.25;85.88
77011;BME280;65945;53.148;17.956;2023-09-18T01:44:54;101162.55;;;14.21;86.22
77011;BME280;65945;53.148;17.956;2023-09-18T01:47:22;101162.04;;;14.18;86.79
77011;BME280;65945;53.148;17.956;2023-09-18T01:49:55;101158.21;;;14.15;86.81
77011;BME280;65945;53.148;17.956;2023-09-18T01:52:22;101161.70;;;14.12;86.58
77011;BME280;65945;53.148;17.956;2023-09-18T01:54:48;101161.61;;;14.11;86.45
77011;BME280;65945;53.148;17.956;2023-09-18T01:57:15;101155.89;;;14.09;86.34
77011;BME280;65945;53.148;17.956;2023-09-18T01:59:42;101158.02;;;14.08;86.24
77011;BME280;65945;53.148;17.956;2023-09-18T02:02:08;101156.08;;;14.07;86.51
77011;BME280;65945;53.148;17.956;2023-09-18T02:04:36;101154.54;;;14.06;86.57
77011;BME280;65945;53.148;17.956;2023-09-18T02:07:03;101152.36;;;14.04;86.46
77011;BME280;65945;53.148;17.956;2023-09-18T02:09:30;101151.54;;;14.02;86.44
77011;BME280;65945;53.148;17.956;2023-09-18T02:11:56;101152.13;;;14.00;86.34
77011;BME280;65945;53.148;17.956;2023-09-18T02:14:23;101152.19;;;13.98;86.37
77011;BME280;65945;53.148;17.956;2023-09-18T02:16:50;101151.91;;;13.96;86.26
77011;BME280;65945;53.148;17.956;2023-09-18T02:19:18;101149.96;;;13.94;86.48
77011;BME280;65945;53.148;17.956;2023-09-18T02:21:46;101148.15;;;13.91;86.51
77011;BME280;65945;53.148;17.956;2023-09-18T02:24:13;101146.27;;;13.88;86.57
77011;BME280;65945;53.148;17.956;2023-09-18T02:26:40;101144.28;;;13.85;86.78
77011;BME280;65945;53.148;17.956;2023-09-18T02:29:08;101141.54;;;13.81;86.98
77011;BME280;65945;53.148;17.956;2023-09-18T02:31:38;101136.48;;;13.78;87.23
77011;BME280;65945;53.148;17.956;2023-09-18T02:34:05;101128.65;;;13.74;87.49
77011;BME280;65945;53.148;17.956;2023-09-18T02:36:33;101129.93;;;13.72;88.00
77011;BME280;65945;53.148;17.956;2023-09-18T02:39:00;101130.38;;;13.71;87.89
77011;BME280;65945;53.148;17.956;2023-09-18T02:41:26;101126.27;;;13.69;87.86
77011;BME280;65945;53.148;17.956;2023-09-18T02:43:53;101129.88;;;13.68;87.70
77011;BME280;65945;53.148;17.956;2023-09-18T02:46:19;101125.25;;;13.67;87.56
77011;BME280;65945;53.148;17.956;2023-09-18T02:48:46;101129.31;;;13.67;87.54
77011;BME280;65945;53.148;17.956;2023-09-18T02:51:13;101130.04;;;13.65;87.36
77011;BME280;65945;53.148;17.956;2023-09-18T02:53:39;101130.27;;;13.64;87.45
77011;BME280;65945;53.148;17.956;2023-09-18T02:56:06;101132.02;;;13.63;87.38
77011;BME280;65945;53.148;17.956;2023-09-18T02:58:34;101127.83;;;13.61;87.52
77011;BME280;65945;53.148;17.956;2023-09-18T03:01:00;101129.88;;;13.59;87.59
77011;BME280;65945;53.148;17.956;2023-09-18T03:03:30;101121.55;;;13.57;87.60
77011;BME280;65945;53.148;17.956;2023-09-18T03:06:02;101117.56;;;13.54;87.92
77011;BME280;65945;53.148;17.956;2023-09-18T03:08:30;101116.08;;;13.52;87.95
77011;BME280;65945;53.148;17.956;2023-09-18T03:10:58;101115.05;;;13.50;87.88
77011;BME280;65945;53.148;17.956;2023-09-18T03:13:27;101113.56;;;13.49;87.78
77011;BME280;65945;53.148;17.956;2023-09-18T03:15:54;101108.38;;;13.47;87.79
77011;BME280;65945;53.148;17.956;2023-09-18T03:18:23;101105.42;;;13.44;87.87
77011;BME280;65945;53.148;17.956;2023-09-18T03:20:49;101107.31;;;13.43;87.85
77011;BME280;65945;53.148;17.956;2023-09-18T03:23:16;101099.00;;;13.42;87.85
77011;BME280;65945;53.148;17.956;2023-09-18T03:25:43;101093.42;;;13.40;88.00
77011;BME280;65945;53.148;17.956;2023-09-18T03:28:10;101086.48;;;13.38;88.07
77011;BME280;65945;53.148;17.956;2023-09-18T03:30:37;101085.48;;;13.37;88.01
77011;BME280;65945;53.148;17.956;2023-09-18T03:33:03;101082.95;;;13.37;88.18
77011;BME280;65945;53.148;17.956;2023-09-18T03:35:31;101082.23;;;13.36;88.32
77011;BME280;65945;53.148;17.956;2023-09-18T03:37:59;101081.77;;;13.35;88.38
77011;BME280;65945;53.148;17.956;2023-09-18T03:40:26;101079.02;;;13.35;88.41
77011;BME280;65945;53.148;17.956;2023-09-18T03:42:52;101074.16;;;13.35;88.34
77011;BME280;65945;53.148;17.956;2023-09-18T03:45:19;101072.22;;;13.34;88.16
77011;BME280;65945;53.148;17.956;2023-09-18T03:47:47;101073.84;;;13.34;88.26
77011;BME280;65945;53.148;17.956;2023-09-18T03:50:16;101072.60;;;13.34;88.38
77011;BME280;65945;53.148;17.956;2023-09-18T03:52:43;101066.92;;;13.33;88.47
77011;BME280;65945;53.148;17.956;2023-09-18T03:55:10;101065.34;;;13.35;88.82
77011;BME280;65945;53.148;17.956;2023-09-18T03:57:36;101060.91;;;13.36;89.04
77011;BME280;65945;53.148;17.956;2023-09-18T04:00:06;101061.08;;;13.38;89.32
77011;BME280;65945;53.148;17.956;2023-09-18T04:02:38;101055.51;;;13.39;89.71
77011;BME280;65945;53.148;17.956;2023-09-18T04:05:05;101051.92;;;13.41;89.71
77011;BME280;65945;53.148;17.956;2023-09-18T04:07:33;101049.77;;;13.41;89.78
77011;BME280;65945;53.148;17.956;2023-09-18T04:10:01;101050.58;;;13.43;89.73
77011;BME280;65945;53.148;17.956;2023-09-18T04:12:29;101044.11;;;13.43;89.56
77011;BME280;65945;53.148;17.956;2023-09-18T04:14:56;101040.98;;;13.43;89.73
77011;BME280;65945;53.148;17.956;2023-09-18T04:17:22;101037.46;;;13.44;89.93
77011;BME280;65945;53.148;17.956;2023-09-18T04:19:49;101034.58;;;13.46;90.09
77011;BME280;65945;53.148;17.956;2023-09-18T04:22:16;101033.04;;;13.46;90.03
77011;BME280;65945;53.148;17.956;2023-09-18T04:24:42;101034.98;;;13.47;90.09
77011;BME280;65945;53.148;17.956;2023-09-18T04:27:10;101040.79;;;13.50;90.16
77011;BME280;65945;53.148;17.956;2023-09-18T04:29:37;101037.83;;;13.52;90.14
77011;BME280;65945;53.148;17.956;2023-09-18T04:32:04;101037.70;;;13.53;90.27
77011;BME280;65945;53.148;17.956;2023-09-18T04:34:31;101036.02;;;13.54;90.33
77011;BME280;65945;53.148;17.956;2023-09-18T04:36:58;101034.02;;;13.55;90.32
77011;BME280;65945;53.148;17.956;2023-09-18T04:39:25;101034.45;;;13.57;90.35
77011;BME280;65945;53.148;17.956;2023-09-18T04:41:51;101032.70;;;13.58;90.30
77011;BME280;65945;53.148;17.956;2023-09-18T04:44:18;101036.48;;;13.60;90.23
77011;BME280;65945;53.148;17.956;2023-09-18T04:46:45;101036.60;;;13.62;90.40
77011;BME280;65945;53.148;17.956;2023-09-18T04:49:12;101032.79;;;13.64;90.38
77011;BME280;65945;53.148;17.956;2023-09-18T04:51:39;101032.08;;;13.67;90.70
77011;BME280;65945;53.148;17.956;2023-09-18T04:54:06;101030.81;;;13.71;90.83
77011;BME280;65945;53.148;17.956;2023-09-18T04:56:33;101029.61;;;13.72;90.83
77011;BME280;65945;53.148;17.956;2023-09-18T04:59:00;101029.91;;;13.76;90.92
77011;BME280;65945;53.148;17.956;2023-09-18T05:01:27;101027.05;;;13.81;91.19
77011;BME280;65945;53.148;17.956;2023-09-18T05:03:54;101027.52;;;13.86;91.59
77011;BME280;65945;53.148;17.956;2023-09-18T05:06:21;101029.35;;;13.91;91.62
77011;BME280;65945;53.148;17.956;2023-09-18T05:08:47;101027.10;;;13.95;91.58
77011;BME280;65945;53.148;17.956;2023-09-18T05:11:14;101027.41;;;13.99;91.52
77011;BME280;65945;53.148;17.956;2023-09-18T05:13:40;101022.38;;;14.04;91.46
77011;BME280;65945;53.148;17.956;2023-09-18T05:16:07;101024.60;;;14.09;91.38
77011;BME280;65945;53.148;17.956;2023-09-18T05:18:33;101028.20;;;14.14;91.22
77011;BME280;65945;53.148;17.956;2023-09-18T05:21:00;101025.34;;;14.18;91.09
77011;BME280;65945;53.148;17.956;2023-09-18T05:23:28;101029.66;;;14.24;91.18
77011;BME280;65945;53.148;17.956;2023-09-18T05:25:55;101025.13;;;14.30;91.36
77011;BME280;65945;53.148;17.956;2023-09-18T05:28:21;101025.22;;;14.36;91.72
77011;BME280;65945;53.148;17.956;2023-09-18T05:30:48;101027.92;;;14.44;91.79
77011;BME280;65945;53.148;17.956;2023-09-18T05:33:14;101027.77;;;14.51;91.68
77011;BME280;65945;53.148;17.956;2023-09-18T05:35:43;101031.79;;;14.59;91.45
77011;BME280;65945;53.148;17.956;2023-09-18T05:38:11;101030.41;;;14.67;91.32
77011;BME280;65945;53.148;17.956;2023-09-18T05:40:40;101027.36;;;14.77;91.58
77011;BME280;65945;53.148;17.956;2023-09-18T05:43:07;101027.85;;;14.86;91.71
77011;BME280;65945;53.148;17.956;2023-09-18T05:45:34;101030.48;;;14.96;91.74
77011;BME280;65945;53.148;17.956;2023-09-18T05:48:01;101030.67;;;15.06;91.57
77011;BME280;65945;53.148;17.956;2023-09-18T05:50:31;101029.30;;;15.17;91.70
77011;BME280;65945;53.148;17.956;2023-09-18T05:52:59;101024.08;;;15.26;91.40
77011;BME280;65945;53.148;17.956;2023-09-18T05:55:27;101019.39;;;15.37;91.27
77011;BME280;65945;53.148;17.956;2023-09-18T05:57:54;101019.43;;;15.48;91.10
77011;BME280;65945;53.148;17.956;2023-09-18T06:00:21;101016.12;;;15.58;91.01
77011;BME280;65945;53.148;17.956;2023-09-18T06:02:48;101022.05;;;15.69;90.73
77011;BME280;65945;53.148;17.956;2023-09-18T06:05:15;101024.98;;;15.80;90.62
77011;BME280;65945;53.148;17.956;2023-09-18T06:07:42;101020.19;;;15.92;90.25
77011;BME280;65945;53.148;17.956;2023-09-18T06:10:09;101017.70;;;16.02;89.68
77011;BME280;65945;53.148;17.956;2023-09-18T06:12:39;101014.14;;;16.14;89.41
77011;BME280;65945;53.148;17.956;2023-09-18T06:15:07;101006.88;;;16.26;89.28
77011;BME280;65945;53.148;17.956;2023-09-18T06:17:38;101004.52;;;16.39;88.93
77011;BME280;65945;53.148;17.956;2023-09-18T06:20:07;101002.61;;;16.52;88.62
77011;BME280;65945;53.148;17.956;2023-09-18T06:22:40;100999.62;;;16.66;88.16
77011;BME280;65945;53.148;17.956;2023-09-18T06:25:07;100993.25;;;16.79;87.74
77011;BME280;65945;53.148;17.956;2023-09-18T06:27:37;100994.90;;;16.92;87.13
77011;BME280;65945;53.148;17.956;2023-09-18T06:30:05;101001.46;;;17.06;86.84
77011;BME280;65945;53.148;17.956;2023-09-18T06:32:32;101003.64;;;17.19;86.45
77011;BME280;65945;53.148;17.956;2023-09-18T06:34:59;101000.94;;;17.32;86.02
77011;BME280;65945;53.148;17.956;2023-09-18T06:37:26;100995.45;;;17.45;85.54
77011;BME280;65945;53.148;17.956;2023-09-18T06:39:53;100995.77;;;17.57;84.95
77011;BME280;65945;53.148;17.956;2023-09-18T06:42:20;100991.19;;;17.68;84.78
77011;BME280;65945;53.148;17.956;2023-09-18T06:44:53;100991.77;;;17.81;84.36
77011;BME280;65945;53.148;17.956;2023-09-18T06:47:19;100991.21;;;17.91;83.83
77011;BME280;65945;53.148;17.956;2023-09-18T06:49:46;100984.84;;;18.02;83.62
77011;BME280;65945;53.148;17.956;2023-09-18T06:52:13;100986.11;;;18.12;83.19
77011;BME280;65945;53.148;17.956;2023-09-18T06:54:40;100984.45;;;18.21;82.80
77011;BME280;65945;53.148;17.956;2023-09-18T06:57:07;100981.23;;;18.33;82.69
77011;BME280;65945;53.148;17.956;2023-09-18T06:59:33;100981.14;;;18.44;82.18
77011;BME280;65945;53.148;17.956;2023-09-18T07:02:01;100978.68;;;18.53;81.31
77011;BME280;65945;53.148;17.956;2023-09-18T07:04:27;100980.09;;;18.62;80.94
77011;BME280;65945;53.148;17.956;2023-09-18T07:06:54;100981.90;;;18.72;81.10
77011;BME280;65945;53.148;17.956;2023-09-18T07:09:22;100981.52;;;18.82;80.93
77011;BME280;65945;53.148;17.956;2023-09-18T07:11:52;100984.09;;;18.92;80.58
77011;BME280;65945;53.148;17.956;2023-09-18T07:14:18;100984.17;;;19.02;80.24
77011;BME280;65945;53.148;17.956;2023-09-18T07:16:45;100983.16;;;19.12;80.03
77011;BME280;65945;53.148;17.956;2023-09-18T07:19:12;100981.30;;;19.22;79.74
77011;BME280;65945;53.148;17.956;2023-09-18T07:21:43;100978.98;;;19.33;79.16
77011;BME280;65945;53.148;17.956;2023-09-18T07:24:10;100975.96;;;19.41;78.95
77011;BME280;65945;53.148;17.956;2023-09-18T07:26:47;100972.55;;;19.50;77.85
77011;BME280;65945;53.148;17.956;2023-09-18T07:29:15;100971.79;;;19.56;77.75
77011;BME280;65945;53.148;17.956;2023-09-18T07:31:43;100973.56;;;19.64;77.92
77011;BME280;65945;53.148;17.956;2023-09-18T07:34:10;100971.69;;;19.74;77.56
77011;BME280;65945;53.148;17.956;2023-09-18T07:36:37;100970.27;;;19.83;76.88
77011;BME280;65945;53.148;17.956;2023-09-18T07:39:03;100966.61;;;19.91;76.41
77011;BME280;65945;53.148;17.956;2023-09-18T07:41:31;100967.11;;;20.01;76.42
77011;BME280;65945;53.148;17.956;2023-09-18T07:43:58;100956.64;;;20.12;76.40
77011;BME280;65945;53.148;17.956;2023-09-18T07:46:25;100956.64;;;20.22;75.08
77011;BME280;65945;53.148;17.956;2023-09-18T07:48:52;100956.38;;;20.30;74.88
77011;BME280;65945;53.148;17.956;2023-09-18T07:51:18;100957.70;;;20.40;75.29
77011;BME280;65945;53.148;17.956;2023-09-18T07:53:45;100959.10;;;20.51;74.61
77011;BME280;65945;53.148;17.956;2023-09-18T07:56:12;100959.54;;;20.60;72.65
77011;BME280;65945;53.148;17.956;2023-09-18T07:58:38;100957.97;;;20.66;73.91
77011;BME280;65945;53.148;17.956;2023-09-18T08:01:05;100955.45;;;20.78;73.98
77011;BME280;65945;53.148;17.956;2023-09-18T08:03:32;100954.31;;;20.91;73.80
77011;BME280;65945;53.148;17.956;2023-09-18T08:05:59;100957.02;;;21.04;73.58
77011;BME280;65945;53.148;17.956;2023-09-18T08:08:26;100958.41;;;21.18;72.22
77011;BME280;65945;53.148;17.956;2023-09-18T08:10:53;100959.94;;;21.28;72.58
77011;BME280;65945;53.148;17.956;2023-09-18T08:13:20;100955.54;;;21.40;72.66
77011;BME280;65945;53.148;17.956;2023-09-18T08:15:47;100950.44;;;21.55;72.28
77011;BME280;65945;53.148;17.956;2023-09-18T08:18:13;100944.61;;;21.67;71.60
77011;BME280;65945;53.148;17.956;2023-09-18T08:20:41;100942.55;;;21.78;70.98
77011;BME280;65945;53.148;17.956;2023-09-18T08:23:09;100940.05;;;21.88;70.28
77011;BME280;65945;53.148;17.956;2023-09-18T08:25:36;100940.31;;;21.98;70.07
77011;BME280;65945;53.148;17.956;2023-09-18T08:28:03;100940.35;;;22.07;69.54
77011;BME280;65945;53.148;17.956;2023-09-18T08:30:31;100939.79;;;22.15;69.48
77011;BME280;65945;53.148;17.956;2023-09-18T08:32:57;100933.78;;;22.23;69.26
77011;BME280;65945;53.148;17.956;2023-09-18T08:35:24;100927.00;;;22.33;69.53
77011;BME280;65945;53.148;17.956;2023-09-18T08:37:55;100925.30;;;22.47;68.65
77011;BME280;65945;53.148;17.956;2023-09-18T08:40:23;100924.08;;;22.57;67.86
77011;BME280;65945;53.148;17.956;2023-09-18T08:42:51;100914.61;;;22.65;67.53
77011;BME280;65945;53.148;17.956;2023-09-18T08:45:33;100909.08;;;22.72;66.41
77011;BME280;65945;53.148;17.956;2023-09-18T08:48:01;100905.89;;;22.75;66.42
77011;BME280;65945;53.148;17.956;2023-09-18T08:50:28;100901.38;;;22.80;66.32
77011;BME280;65945;53.148;17.956;2023-09-18T08:52:56;100896.19;;;22.92;66.21
77011;BME280;65945;53.148;17.956;2023-09-18T08:55:24;100893.05;;;23.03;65.97
77011;BME280;65945;53.148;17.956;2023-09-18T08:57:52;100891.56;;;23.15;66.63
77011;BME280;65945;53.148;17.956;2023-09-18T09:00:19;100887.11;;;23.30;66.52
77011;BME280;65945;53.148;17.956;2023-09-18T09:02:46;100879.31;;;23.41;65.89
77011;BME280;65945;53.148;17.956;2023-09-18T09:05:17;100870.15;;;23.54;65.78
77011;BME280;65945;53.148;17.956;2023-09-18T09:07:44;100871.95;;;23.65;64.71
77011;BME280;65945;53.148;17.956;2023-09-18T09:10:11;100871.17;;;23.75;65.14
77011;BME280;65945;53.148;17.956;2023-09-18T09:12:53;100873.63;;;23.87;63.88
77011;BME280;65945;53.148;17.956;2023-09-18T09:15:22;100876.89;;;23.99;64.59
77011;BME280;65945;53.148;17.956;2023-09-18T09:17:51;100877.30;;;24.12;64.30
77011;BME280;65945;53.148;17.956;2023-09-18T09:20:18;100868.36;;;24.25;64.05
77011;BME280;65945;53.148;17.956;2023-09-18T09:22:45;100860.65;;;24.37;62.72
77011;BME280;65945;53.148;17.956;2023-09-18T09:25:23;100859.98;;;24.48;63.42
77011;BME280;65945;53.148;17.956;2023-09-18T09:27:55;100852.88;;;24.62;62.85
77011;BME280;65945;53.148;17.956;2023-09-18T09:30:24;100844.81;;;24.73;62.73
77011;BME280;65945;53.148;17.956;2023-09-18T09:32:52;100839.84;;;24.83;60.67
77011;BME280;65945;53.148;17.956;2023-09-18T09:35:27;100832.48;;;24.88;59.68
77011;BME280;65945;53.148;17.956;2023-09-18T09:37:59;100825.35;;;24.95;60.71
77011;BME280;65945;53.148;17.956;2023-09-18T09:40:28;100821.41;;;25.10;60.83
77011;BME280;65945;53.148;17.956;2023-09-18T09:42:56;100816.59;;;25.24;60.24
77011;BME280;65945;53.148;17.956;2023-09-18T09:45:31;100815.02;;;25.39;59.94
77011;BME280;65945;53.148;17.956;2023-09-18T09:48:06;100807.92;;;25.52;58.39
77011;BME280;65945;53.148;17.956;2023-09-18T09:50:34;100806.09;;;25.63;58.74
77011;BME280;65945;53.148;17.956;2023-09-18T09:53:12;100802.68;;;25.75;58.44
77011;BME280;65945;53.148;17.956;2023-09-18T09:55:40;100798.73;;;25.85;58.80
77011;BME280;65945;53.148;17.956;2023-09-18T09:58:08;100795.44;;;25.97;57.25
77011;BME280;65945;53.148;17.956;2023-09-18T10:00:50;100786.39;;;26.09;58.01
77011;BME280;65945;53.148;17.956;2023-09-18T10:03:19;100780.36;;;26.24;57.23
77011;BME280;65945;53.148;17.956;2023-09-18T10:05:50;100777.95;;;26.39;56.27
77011;BME280;65945;53.148;17.956;2023-09-18T10:08:23;100779.95;;;26.54;55.75
77011;BME280;65945;53.148;17.956;2023-09-18T10:10:53;100775.71;;;26.68;55.57
77011;BME280;65945;53.148;17.956;2023-09-18T10:13:31;100778.69;;;26.79;53.22
77011;BME280;65945;53.148;17.956;2023-09-18T10:15:59;100776.48;;;26.83;53.66
77011;BME280;65945;53.148;17.956;2023-09-18T10:18:52;100777.24;;;26.92;53.89
77011;BME280;65945;53.148;17.956;2023-09-18T10:21:35;100771.65;;;27.06;51.96
77011;BME280;65945;53.148;17.956;2023-09-18T10:24:13;100769.42;;;27.10;52.06
77011;BME280;65945;53.148;17.956;2023-09-18T10:29:16;100764.17;;;27.31;52.23
77011;BME280;65945;53.148;17.956;2023-09-18T10:31:45;100763.34;;;27.41;52.26
77011;BME280;65945;53.148;17.956;2023-09-18T10:34:13;100762.73;;;27.49;51.40
77011;BME280;65945;53.148;17.956;2023-09-18T10:36:42;100757.38;;;27.54;51.08
77011;BME280;65945;53.148;17.956;2023-09-18T10:39:10;100755.23;;;27.61;51.18
77011;BME280;65945;53.148;17.956;2023-09-18T10:41:39;100752.45;;;27.70;51.07
77011;BME280;65945;53.148;17.956;2023-09-18T10:44:08;100750.95;;;27.77;50.22
77011;BME280;65945;53.148;17.956;2023-09-18T10:46:37;100752.02;;;27.75;49.89
77011;BME280;65945;53.148;17.956;2023-09-18T10:49:04;100746.06;;;27.77;50.27
77011;BME280;65945;53.148;17.956;2023-09-18T10:51:32;100745.15;;;27.81;50.03
77011;BME280;65945;53.148;17.956;2023-09-18T10:54:00;100737.02;;;27.84;49.35
77011;BME280;65945;53.148;17.956;2023-09-18T10:56:27;100740.83;;;27.81;49.64
77011;BME280;65945;53.148;17.956;2023-09-18T10:59:00;100736.98;;;27.83;49.62
77011;BME280;65945;53.148;17.956;2023-09-18T11:01:28;100735.30;;;27.85;49.49
77011;BME280;65945;53.148;17.956;2023-09-18T11:04:00;100729.98;;;27.89;49.51
77011;BME280;65945;53.148;17.956;2023-09-18T11:06:28;100728.90;;;27.95;49.13
77011;BME280;65945;53.148;17.956;2023-09-18T11:09:03;100732.95;;;28.00;48.80
77011;BME280;65945;53.148;17.956;2023-09-18T11:11:31;100730.34;;;27.99;48.42
77011;BME280;65945;53.148;17.956;2023-09-18T11:13:59;100727.19;;;27.97;48.56
77011;BME280;65945;53.148;17.956;2023-09-18T11:19:38;100723.00;;;28.02;47.66
77011;BME280;65945;53.148;17.956;2023-09-18T11:21:40;100715.06;;;28.05;47.39
77011;BME280;65945;53.148;17.956;2023-09-18T11:24:20;100713.98;;;28.10;47.06
77011;BME280;65945;53.148;17.956;2023-09-18T11:26:49;100718.55;;;28.17;46.59
77011;BME280;65945;53.148;17.956;2023-09-18T11:29:22;100714.63;;;28.18;46.46
77011;BME280;65945;53.148;17.956;2023-09-18T11:31:54;100712.89;;;28.20;46.20
77011;BME280;65945;53.148;17.956;2023-09-18T11:34:24;100706.20;;;28.24;46.61
77011;BME280;65945;53.148;17.956;2023-09-18T11:36:55;100700.58;;;28.30;46.37
77011;BME280;65945;53.148;17.956;2023-09-18T11:39:48;100692.71;;;28.35;45.48
77011;BME280;65945;53.148;17.956;2023-09-18T11:42:20;100685.61;;;28.35;45.23
77011;BME280;65945;53.148;17.956;2023-09-18T11:44:52;100688.05;;;28.37;45.21
77011;BME280;65945;53.148;17.956;2023-09-18T11:47:20;100688.88;;;28.39;44.62
77011;BME280;65945;53.148;17.956;2023-09-18T11:52:22;100680.06;;;28.45;44.62
77011;BME280;65945;53.148;17.956;2023-09-18T11:54:49;100679.65;;;28.50;44.72
77011;BME280;65945;53.148;17.956;2023-09-18T11:57:18;100679.42;;;28.51;43.86
77011;BME280;65945;53.148;17.956;2023-09-18T11:59:46;100678.70;;;28.56;44.19
77011;BME280;65945;53.148;17.956;2023-09-18T12:02:27;100672.81;;;28.64;42.21
77011;BME280;65945;53.148;17.956;2023-09-18T12:05:14;100669.42;;;28.67;40.60
77011;BME280;65945;53.148;17.956;2023-09-18T12:07:43;100672.80;;;28.66;41.25
77011;BME280;65945;53.148;17.956;2023-09-18T12:10:13;100663.65;;;28.69;41.50
77011;BME280;65945;53.148;17.956;2023-09-18T12:12:42;100667.40;;;28.71;41.89
77011;BME280;65945;53.148;17.956;2023-09-18T12:15:12;100670.70;;;28.74;41.92
77011;BME280;65945;53.148;17.956;2023-09-18T12:17:38;100669.50;;;28.77;42.12
77011;BME280;65945;53.148;17.956;2023-09-18T12:20:05;100667.70;;;28.82;42.06
77011;BME280;65945;53.148;17.956;2023-09-18T12:22:33;100665.14;;;28.85;41.98
77011;BME280;65945;53.148;17.956;2023-09-18T12:25:13;100658.90;;;28.87;41.97
77011;BME280;65945;53.148;17.956;2023-09-18T12:27:44;100654.41;;;28.87;41.96
77011;BME280;65945;53.148;17.956;2023-09-18T12:30:12;100652.16;;;28.87;42.27
77011;BME280;65945;53.148;17.956;2023-09-18T12:32:41;100654.39;;;28.89;42.19
77011;BME280;65945;53.148;17.956;2023-09-18T12:35:08;100652.19;;;28.89;41.91
77011;BME280;65945;53.148;17.956;2023-09-18T12:37:39;100650.02;;;28.88;42.13
77011;BME280;65945;53.148;17.956;2023-09-18T12:40:21;100642.17;;;28.89;42.46
77011;BME280;65945;53.148;17.956;2023-09-18T12:42:50;100645.02;;;28.95;42.27
77011;BME280;65945;53.148;17.956;2023-09-18T12:45:17;100639.46;;;28.97;42.30
77011;BME280;65945;53.148;17.956;2023-09-18T12:47:44;100637.11;;;28.98;41.84
77011;BME280;65945;53.148;17.956;2023-09-18T12:50:14;100631.73;;;28.96;41.81
77011;BME280;65945;53.148;17.956;2023-09-18T12:52:41;100632.61;;;28.98;42.16
77011;BME280;65945;53.148;17.956;2023-09-18T12:55:08;100622.66;;;29.03;42.01
77011;BME280;65945;53.148;17.956;2023-09-18T12:57:46;100617.25;;;29.05;41.77
77011;BME280;65945;53.148;17.956;2023-09-18T13:00:13;100619.00;;;29.08;42.00